Private Wetterstation Sandau
Wetterdaten: Mai 2013
Datum Temp. A. Feuchte A. Luftdruck Regen Wind Richtung Taupunkt Windchill
01.05.2013 13,3 C 55 % 1024,8 hPa 0,0 l/m 3,6 km/h (1 Bft) O-NO 4,1 C 13,3 C
02.05.2013 13,1 C 52 % 1022,0 hPa 0,0 l/m 9,7 km/h (2 Bft) O-NO 3,1 C 12,8 C
03.05.2013 13,0 C 43 % 1018,4 hPa 0,0 l/m 3,6 km/h (1 Bft) O-NO 0,5 C 13,0 C
04.05.2013 15,5 C 53 % 1017,5 hPa 0,0 l/m 4,1 km/h (1 Bft) S-SW 5,3 C 15,5 C
05.05.2013 17,2 C 56 % 1024,0 hPa 0,0 l/m 4,2 km/h (1 Bft) O-SO 8,1 C 17,2 C
06.05.2013 18,3 C 53 % 1021,6 hPa 0,0 l/m 7,6 km/h (2 Bft) O-SO 7,8 C 18,3 C
07.05.2013 18,6 C 71 % 1015,9 hPa 14,5 l/m 6,2 km/h (2 Bft) O-NO 12,9 C 18,6 C
08.05.2013 19,1 C 71 % 1012,8 hPa 0,0 l/m 4,0 km/h (1 Bft) S-SO 13,3 C 19,1 C
09.05.2013 16,9 C 78 % 1012,5 hPa 22,3 l/m 3,4 km/h (1 Bft) S-SO 12,7 C 16,9 C
11.05.2013 18,7 C 72 % 1012,7 hPa 22,3 l/m 6,8 km/h (2 Bft) SW 13,1 C 18,7 C
12.05.2013 10,6 C 79 % 1013,8 hPa 2,6 l/m 1,9 km/h (1 Bft) W 7,1 C 10,6 C
13.05.2013 12,9 C 75 % 1012,5 hPa 1,0 l/m 10,8 km/h (2 Bft) S-SW 8,3 C 12,9 C
14.05.2013 13,9 C 68 % 1010,4 hPa 2,1 l/m 10,4 km/h (2 Bft) W-SW 7,8 C 13,9 C
15.05.2013 19,1 C 56 % 1003,0 hPa 0,0 l/m 6,9 km/h (2 Bft) SO 9,7 C 19,1 C
16.05.2013 20,4 C 58 % 999,0 hPa 0,0 l/m 9,1 km/h (2 Bft) SO 11,3 C 20,4 C
17.05.2013 22,0 C 61 % 999,6 hPa 0,0 l/m 5,0 km/h (1 Bft) SO 13,6 C 22,0 C
18.05.2013 12,8 C 88 % 1008,0 hPa 13,5 l/m 12,7 km/h (3 Bft) W-SW 10,7 C 12,8 C
19.05.2013 15,0 C 77 % 1008,8 hPa 0,0 l/m 3,1 km/h (1 Bft) W-SW 10,9 C 15,0 C
20.05.2013 14,6 C 80 % 1008,5 hPa 0,0 l/m 4,8 km/h (1 Bft) SW 11,1 C 14,6 C
21.05.2013 16,2 C 66 % 1008,3 hPa 0,5 l/m 6,0 km/h (2 Bft) W-SW 9,8 C 16,2 C
22.05.2013 9,8 C 80 % 1005,1 hPa 8,3 l/m 15,0 km/h (3 Bft) W 6,4 C 8,1 C
23.05.2013 12,1 C 57 % 1007,6 hPa 0,0 l/m 4,2 km/h (1 Bft) W-SW 3,5 C 11,9 C
24.05.2013 11,6 C 71 % 1011,3 hPa 0,0 l/m 4,6 km/h (1 Bft) NW 6,2 C 11,6 C
25.05.2013 9,2 C 88 % 1008,6 hPa 15,0 l/m 12,0 km/h (2 Bft) NW 7,3 C 8,0 C
26.05.2013 12,0 C 92 % 1001,5 hPa 9,8 l/m 6,2 km/h (2 Bft) N 10,7 C 12,0 C
27.05.2013 14,4 C 72 % 1007,7 hPa 0,5 l/m 3,8 km/h (1 Bft) O-NO 8,9 C 14,4 C
28.05.2013 13,8 C 83 % 1002,8 hPa 0,0 l/m 4,8 km/h (1 Bft) NW 10,9 C 13,8 C
29.05.2013 14,7 C 82 % 1001,0 hPa 0,5 l/m 3,5 km/h (1 Bft) SO 11,6 C 14,7 C
30.05.2013 17,6 C 75 % 1004,9 hPa 0,5 l/m 6,9 km/h (2 Bft) N-NO 12,8 C 17,6 C
31.05.2013 18,5 C 76 % 1003,8 hPa 5,2 l/m 9,3 km/h (2 Bft) N-NO 14,2 C 18,5 C
Min-Datum 23.05.13 03.05.13 16.05.13 15 Tage 01.05.13 - 03.05.13 23.05.13
Min-Zeit 05:16 16:31 17:11 - 02:11 - 03:51 05:16
Minimum 3,8 C 29 % 996,9 hPa - 0,0 km/h (0 Bft) - -3,9 C 0,1 C
Max-Datum 17.05.13 26.05.13 01.05.13 09.05.13 09.05.13 - 08.05.13 17.05.13
Max-Zeit 14:21 01:51 08:41 17:46 17:46 - 13:31 14:21
Maximum 29,4 C 93 % 1027,9 hPa 22,3 l/m 42,1 km/h
S-SO (6 Bft)
- 16,2 C 29,4 C
Durchschnitt 15,2 C 69 % 1010,3 hPa #118,6 l/m 6,5 km/h (2 Bft) W-SW 9,1 C 15,1 C

Durchschnitt Minimum Temp.9,4 C
Durchschnitt Maximum Temp.21,1 C
(c) by David Heller